sensor_id;sensor_type;location;lat;lon;timestamp;pressure;altitude;pressure_sealevel;temperature;humidity
56671;BME280;42545;50.054;8.306;2023-09-19T00:02:02;99366.75;;;15.56;100.00
56671;BME280;42545;50.054;8.306;2023-09-19T00:04:31;99372.91;;;15.60;100.00
56671;BME280;42545;50.054;8.306;2023-09-19T00:06:58;99375.56;;;15.60;100.00
56671;BME280;42545;50.054;8.306;2023-09-19T00:09:24;99374.72;;;15.56;100.00
56671;BME280;42545;50.054;8.306;2023-09-19T00:11:52;99383.59;;;15.55;100.00
56671;BME280;42545;50.054;8.306;2023-09-19T00:14:18;99396.03;;;15.53;100.00
56671;BME280;42545;50.054;8.306;2023-09-19T00:16:45;99396.97;;;15.50;100.00
56671;BME280;42545;50.054;8.306;2023-09-19T00:19:16;99396.16;;;15.45;100.00
56671;BME280;42545;50.054;8.306;2023-09-19T00:21:42;99400.59;;;15.46;100.00
56671;BME280;42545;50.054;8.306;2023-09-19T00:24:11;99394.44;;;15.43;100.00
56671;BME280;42545;50.054;8.306;2023-09-19T00:26:38;99397.97;;;15.42;100.00
56671;BME280;42545;50.054;8.306;2023-09-19T00:29:05;99396.25;;;15.37;100.00
56671;BME280;42545;50.054;8.306;2023-09-19T00:31:33;99395.34;;;15.38;100.00
56671;BME280;42545;50.054;8.306;2023-09-19T00:34:03;99394.44;;;15.41;100.00
56671;BME280;42545;50.054;8.306;2023-09-19T00:36:36;99403.31;;;15.40;100.00
56671;BME280;42545;50.054;8.306;2023-09-19T00:39:03;99405.97;;;15.40;100.00
56671;BME280;42545;50.054;8.306;2023-09-19T00:41:31;99401.56;;;15.39;100.00
56671;BME280;42545;50.054;8.306;2023-09-19T00:44:00;99394.50;;;15.36;100.00
56671;BME280;42545;50.054;8.306;2023-09-19T00:46:29;99406.03;;;15.35;100.00
56671;BME280;42545;50.054;8.306;2023-09-19T00:48:56;99389.31;;;15.27;100.00
56671;BME280;42545;50.054;8.306;2023-09-19T00:51:23;99416.72;;;15.32;100.00
56671;BME280;42545;50.054;8.306;2023-09-19T00:53:52;99403.44;;;15.29;100.00
56671;BME280;42545;50.054;8.306;2023-09-19T00:56:19;99408.69;;;15.37;100.00
56671;BME280;42545;50.054;8.306;2023-09-19T00:58:46;99406.88;;;15.39;100.00
56671;BME280;42545;50.054;8.306;2023-09-19T01:01:13;99406.03;;;15.37;100.00
56671;BME280;42545;50.054;8.306;2023-09-19T01:03:40;99418.34;;;15.43;100.00
56671;BME280;42545;50.054;8.306;2023-09-19T01:06:07;99435.19;;;15.43;100.00
56671;BME280;42545;50.054;8.306;2023-09-19T01:08:34;99431.66;;;15.43;100.00
56671;BME280;42545;50.054;8.306;2023-09-19T01:11:10;99428.06;;;15.44;100.00
56671;BME280;42545;50.054;8.306;2023-09-19T01:13:55;99441.38;;;15.42;100.00
56671;BME280;42545;50.054;8.306;2023-09-19T01:16:32;99455.59;;;15.40;100.00
56671;BME280;42545;50.054;8.306;2023-09-19T01:19:07;99465.38;;;15.39;100.00
56671;BME280;42545;50.054;8.306;2023-09-19T01:21:53;99466.25;;;15.40;100.00
56671;BME280;42545;50.054;8.306;2023-09-19T01:24:47;99464.44;;;15.40;100.00
56671;BME280;42545;50.054;8.306;2023-09-19T01:27:45;99464.41;;;15.43;100.00
56671;BME280;42545;50.054;8.306;2023-09-19T01:30:20;99462.63;;;15.44;100.00
56671;BME280;42545;50.054;8.306;2023-09-19T01:32:50;99467.94;;;15.44;100.00
56671;BME280;42545;50.054;8.306;2023-09-19T01:35:17;99467.09;;;15.42;100.00
56671;BME280;42545;50.054;8.306;2023-09-19T01:37:44;99469.84;;;15.35;100.00
56671;BME280;42545;50.054;8.306;2023-09-19T01:40:12;99471.66;;;15.33;100.00
56671;BME280;42545;50.054;8.306;2023-09-19T01:42:45;99472.56;;;15.29;100.00
56671;BME280;42545;50.054;8.306;2023-09-19T01:45:24;99480.56;;;15.28;100.00
56671;BME280;42545;50.054;8.306;2023-09-19T01:47:53;99478.72;;;15.31;100.00
56671;BME280;42545;50.054;8.306;2023-09-19T01:50:29;99481.38;;;15.31;100.00
56671;BME280;42545;50.054;8.306;2023-09-19T01:52:58;99488.50;;;15.29;100.00
56671;BME280;42545;50.054;8.306;2023-09-19T01:55:29;99497.38;;;15.30;100.00
56671;BME280;42545;50.054;8.306;2023-09-19T01:58:01;99493.81;;;15.31;100.00
56671;BME280;42545;50.054;8.306;2023-09-19T02:00:33;99488.50;;;15.29;100.00
56671;BME280;42545;50.054;8.306;2023-09-19T02:03:02;99495.63;;;15.26;100.00
56671;BME280;42545;50.054;8.306;2023-09-19T02:05:29;99491.25;;;15.23;100.00
56671;BME280;42545;50.054;8.306;2023-09-19T02:07:57;99499.22;;;15.22;100.00
56671;BME280;42545;50.054;8.306;2023-09-19T02:10:24;99507.19;;;15.22;100.00
56671;BME280;42545;50.054;8.306;2023-09-19T02:12:50;99503.69;;;15.21;100.00
56671;BME280;42545;50.054;8.306;2023-09-19T02:15:18;99496.66;;;15.17;100.00
56671;BME280;42545;50.054;8.306;2023-09-19T02:17:46;99496.69;;;15.09;100.00
56671;BME280;42545;50.054;8.306;2023-09-19T02:20:12;99507.38;;;15.08;100.00
56671;BME280;42545;50.054;8.306;2023-09-19T02:22:40;99502.06;;;15.08;100.00
56671;BME280;42545;50.054;8.306;2023-09-19T02:25:07;99510.03;;;15.06;100.00
56671;BME280;42545;50.054;8.306;2023-09-19T02:27:34;99508.34;;;15.01;100.00
56671;BME280;42545;50.054;8.306;2023-09-19T02:30:01;99517.19;;;15.01;100.00
56671;BME280;42545;50.054;8.306;2023-09-19T02:32:30;99510.09;;;15.00;100.00
56671;BME280;42545;50.054;8.306;2023-09-19T02:34:58;99506.56;;;14.99;100.00
56671;BME280;42545;50.054;8.306;2023-09-19T02:37:25;99511.91;;;14.96;100.00
56671;BME280;42545;50.054;8.306;2023-09-19T02:39:52;99508.38;;;14.93;100.00
56671;BME280;42545;50.054;8.306;2023-09-19T02:42:19;99516.34;;;14.94;100.00
56671;BME280;42545;50.054;8.306;2023-09-19T02:44:45;99503.13;;;14.91;100.00
56671;BME280;42545;50.054;8.306;2023-09-19T02:47:13;99501.34;;;14.89;100.00
56671;BME280;42545;50.054;8.306;2023-09-19T02:49:42;99496.97;;;14.85;100.00
56671;BME280;42545;50.054;8.306;2023-09-19T02:52:10;99499.63;;;14.83;100.00
56671;BME280;42545;50.054;8.306;2023-09-19T02:54:39;99497.91;;;14.79;100.00
56671;BME280;42545;50.054;8.306;2023-09-19T02:57:07;99504.13;;;14.78;100.00
56671;BME280;42545;50.054;8.306;2023-09-19T02:59:35;99507.66;;;14.78;100.00
56671;BME280;42545;50.054;8.306;2023-09-19T03:02:03;99505.91;;;14.74;100.00
56671;BME280;42545;50.054;8.306;2023-09-19T03:04:30;99513.00;;;14.74;100.00
56671;BME280;42545;50.054;8.306;2023-09-19T03:06:56;99510.38;;;14.71;100.00
56671;BME280;42545;50.054;8.306;2023-09-19T03:09:27;99513.03;;;14.69;100.00
56671;BME280;42545;50.054;8.306;2023-09-19T03:11:53;99516.63;;;14.65;100.00
56671;BME280;42545;50.054;8.306;2023-09-19T03:14:20;99522.84;;;14.64;100.00
56671;BME280;42545;50.054;8.306;2023-09-19T03:16:48;99525.53;;;14.58;100.00
56671;BME280;42545;50.054;8.306;2023-09-19T03:19:17;99528.19;;;14.55;100.00
56671;BME280;42545;50.054;8.306;2023-09-19T03:21:46;99532.63;;;14.53;100.00
56671;BME280;42545;50.054;8.306;2023-09-19T03:24:16;99530.91;;;14.47;100.00
56671;BME280;42545;50.054;8.306;2023-09-19T03:26:45;99531.81;;;14.46;100.00
56671;BME280;42545;50.054;8.306;2023-09-19T03:29:12;99531.81;;;14.43;100.00
56671;BME280;42545;50.054;8.306;2023-09-19T03:31:39;99536.25;;;14.42;100.00
56671;BME280;42545;50.054;8.306;2023-09-19T03:34:06;99533.63;;;14.39;100.00
56671;BME280;42545;50.054;8.306;2023-09-19T03:36:34;99539.84;;;14.37;100.00
56671;BME280;42545;50.054;8.306;2023-09-19T03:39:01;99543.38;;;14.34;100.00
56671;BME280;42545;50.054;8.306;2023-09-19T03:41:30;99545.16;;;14.32;100.00
56671;BME280;42545;50.054;8.306;2023-09-19T03:43:58;99542.56;;;14.28;100.00
56671;BME280;42545;50.054;8.306;2023-09-19T03:46:24;99541.69;;;14.26;100.00
56671;BME280;42545;50.054;8.306;2023-09-19T03:48:52;99538.19;;;14.20;100.00
56671;BME280;42545;50.054;8.306;2023-09-19T03:51:19;99545.25;;;14.20;100.00
56671;BME280;42545;50.054;8.306;2023-09-19T03:53:46;99547.06;;;14.15;100.00
56671;BME280;42545;50.054;8.306;2023-09-19T03:56:14;99549.72;;;14.15;100.00
56671;BME280;42545;50.054;8.306;2023-09-19T03:58:41;99555.03;;;14.12;100.00
56671;BME280;42545;50.054;8.306;2023-09-19T04:01:08;99556.81;;;14.08;100.00
56671;BME280;42545;50.054;8.306;2023-09-19T04:03:35;99559.50;;;14.05;100.00
56671;BME280;42545;50.054;8.306;2023-09-19T04:06:11;99568.38;;;13.98;100.00
56671;BME280;42545;50.054;8.306;2023-09-19T04:08:38;99558.66;;;13.92;100.00
56671;BME280;42545;50.054;8.306;2023-09-19T04:11:05;99559.59;;;13.90;100.00
56671;BME280;42545;50.054;8.306;2023-09-19T04:13:31;99565.81;;;13.86;100.00
56671;BME280;42545;50.054;8.306;2023-09-19T04:15:58;99571.09;;;13.82;100.00
56671;BME280;42545;50.054;8.306;2023-09-19T04:18:26;99567.59;;;13.76;100.00
56671;BME280;42545;50.054;8.306;2023-09-19T04:20:53;99579.09;;;13.76;100.00
56671;BME280;42545;50.054;8.306;2023-09-19T04:23:21;99579.09;;;13.75;100.00
56671;BME280;42545;50.054;8.306;2023-09-19T04:25:47;99571.16;;;13.73;100.00
56671;BME280;42545;50.054;8.306;2023-09-19T04:28:14;99581.75;;;13.73;100.00
56671;BME280;42545;50.054;8.306;2023-09-19T04:30:41;99580.88;;;13.73;100.00
56671;BME280;42545;50.054;8.306;2023-09-19T04:33:07;99582.63;;;13.72;100.00
56671;BME280;42545;50.054;8.306;2023-09-19T04:35:35;99571.19;;;13.65;100.00
56671;BME280;42545;50.054;8.306;2023-09-19T04:38:04;99578.28;;;13.60;100.00
56671;BME280;42545;50.054;8.306;2023-09-19T04:40:32;99580.06;;;13.58;100.00
56671;BME280;42545;50.054;8.306;2023-09-19T04:42:59;99578.28;;;13.56;100.00
56671;BME280;42545;50.054;8.306;2023-09-19T04:45:27;99580.06;;;13.57;100.00
56671;BME280;42545;50.054;8.306;2023-09-19T04:47:54;99586.22;;;13.56;100.00
56671;BME280;42545;50.054;8.306;2023-09-19T04:50:21;99591.56;;;13.53;100.00
56671;BME280;42545;50.054;8.306;2023-09-19T04:52:50;99595.97;;;13.54;100.00
56671;BME280;42545;50.054;8.306;2023-09-19T04:55:17;99589.78;;;13.53;100.00
56671;BME280;42545;50.054;8.306;2023-09-19T04:57:44;99600.38;;;13.53;100.00
56671;BME280;42545;50.054;8.306;2023-09-19T05:00:12;99589.78;;;13.50;100.00
56671;BME280;42545;50.054;8.306;2023-09-19T05:02:40;99602.16;;;13.51;100.00
56671;BME280;42545;50.054;8.306;2023-09-19T05:05:07;99603.06;;;13.47;100.00
56671;BME280;42545;50.054;8.306;2023-09-19T05:07:35;99612.75;;;13.46;100.00
56671;BME280;42545;50.054;8.306;2023-09-19T05:10:03;99609.25;;;13.48;100.00
56671;BME280;42545;50.054;8.306;2023-09-19T05:12:32;99605.69;;;13.49;100.00
56671;BME280;42545;50.054;8.306;2023-09-19T05:14:59;99600.41;;;13.44;100.00
56671;BME280;42545;50.054;8.306;2023-09-19T05:17:26;99609.25;;;13.46;100.00
56671;BME280;42545;50.054;8.306;2023-09-19T05:19:53;99618.06;;;13.45;100.00
56671;BME280;42545;50.054;8.306;2023-09-19T05:22:19;99623.38;;;13.42;100.00
56671;BME280;42545;50.054;8.306;2023-09-19T05:24:46;99628.69;;;13.42;100.00
56671;BME280;42545;50.054;8.306;2023-09-19T05:27:15;99625.13;;;13.43;100.00
56671;BME280;42545;50.054;8.306;2023-09-19T05:29:42;99627.78;;;13.41;100.00
56671;BME280;42545;50.054;8.306;2023-09-19T05:32:09;99623.38;;;13.40;100.00
56671;BME280;42545;50.054;8.306;2023-09-19T05:34:36;99628.69;;;13.43;100.00
56671;BME280;42545;50.054;8.306;2023-09-19T05:37:03;99626.91;;;13.42;100.00
56671;BME280;42545;50.054;8.306;2023-09-19T05:39:32;99618.97;;;13.39;100.00
56671;BME280;42545;50.054;8.306;2023-09-19T05:41:58;99631.34;;;13.40;100.00
56671;BME280;42545;50.054;8.306;2023-09-19T05:44:27;99629.56;;;13.39;100.00
56671;BME280;42545;50.054;8.306;2023-09-19T05:46:53;99631.34;;;13.40;100.00
56671;BME280;42545;50.054;8.306;2023-09-19T05:49:22;99639.28;;;13.40;100.00
56671;BME280;42545;50.054;8.306;2023-09-19T05:51:49;99645.47;;;13.44;100.00
56671;BME280;42545;50.054;8.306;2023-09-19T05:54:19;99649.00;;;13.44;100.00
56671;BME280;42545;50.054;8.306;2023-09-19T05:56:45;99648.13;;;13.45;100.00
56671;BME280;42545;50.054;8.306;2023-09-19T05:59:12;99652.50;;;13.46;100.00
56671;BME280;42545;50.054;8.306;2023-09-19T06:01:42;99656.94;;;13.48;100.00
56671;BME280;42545;50.054;8.306;2023-09-19T06:04:08;99650.78;;;13.45;100.00
56671;BME280;42545;50.054;8.306;2023-09-19T06:06:35;99641.91;;;13.46;100.00
56671;BME280;42545;50.054;8.306;2023-09-19T06:09:04;99640.16;;;13.39;100.00
56671;BME280;42545;50.054;8.306;2023-09-19T06:11:33;99650.75;;;13.44;100.00
56671;BME280;42545;50.054;8.306;2023-09-19T06:14:00;99653.41;;;13.42;100.00
56671;BME280;42545;50.054;8.306;2023-09-19T06:16:27;99660.47;;;13.45;100.00
56671;BME280;42545;50.054;8.306;2023-09-19T06:18:55;99667.53;;;13.48;100.00
56671;BME280;42545;50.054;8.306;2023-09-19T06:21:22;99666.66;;;13.52;100.00
56671;BME280;42545;50.054;8.306;2023-09-19T06:23:48;99671.03;;;13.54;100.00
56671;BME280;42545;50.054;8.306;2023-09-19T06:26:15;99675.47;;;13.57;100.00
56671;BME280;42545;50.054;8.306;2023-09-19T06:28:42;99681.66;;;13.56;100.00
56671;BME280;42545;50.054;8.306;2023-09-19T06:31:09;99679.88;;;13.59;100.00
56671;BME280;42545;50.054;8.306;2023-09-19T06:33:36;99680.78;;;13.60;100.00
56671;BME280;42545;50.054;8.306;2023-09-19T06:36:06;99677.22;;;13.59;100.00
56671;BME280;42545;50.054;8.306;2023-09-19T06:38:33;99685.19;;;13.64;100.00
56671;BME280;42545;50.054;8.306;2023-09-19T06:41:02;99680.75;;;13.68;100.00
56671;BME280;42545;50.054;8.306;2023-09-19T06:43:30;99685.16;;;13.70;100.00
56671;BME280;42545;50.054;8.306;2023-09-19T06:45:59;99686.94;;;13.71;100.00
56671;BME280;42545;50.054;8.306;2023-09-19T06:48:26;99694.91;;;13.71;100.00
56671;BME280;42545;50.054;8.306;2023-09-19T06:50:54;99695.78;;;13.75;100.00
56671;BME280;42545;50.054;8.306;2023-09-19T06:53:22;99704.59;;;13.78;100.00
56671;BME280;42545;50.054;8.306;2023-09-19T06:55:49;99697.53;;;13.77;100.00
56671;BME280;42545;50.054;8.306;2023-09-19T06:58:16;99701.94;;;13.78;100.00
56671;BME280;42545;50.054;8.306;2023-09-19T07:00:43;99709.00;;;13.84;100.00
56671;BME280;42545;50.054;8.306;2023-09-19T07:03:10;99715.19;;;13.84;100.00
56671;BME280;42545;50.054;8.306;2023-09-19T07:05:37;99724.88;;;13.90;100.00
56671;BME280;42545;50.054;8.306;2023-09-19T07:08:05;99726.66;;;13.93;100.00
56671;BME280;42545;50.054;8.306;2023-09-19T07:10:34;99739.03;;;13.98;100.00
56671;BME280;42545;50.054;8.306;2023-09-19T07:13:02;99734.59;;;14.02;100.00
56671;BME280;42545;50.054;8.306;2023-09-19T07:15:32;99732.78;;;14.07;100.00
56671;BME280;42545;50.054;8.306;2023-09-19T07:18:01;99741.63;;;14.12;100.00
56671;BME280;42545;50.054;8.306;2023-09-19T07:20:27;99741.63;;;14.17;100.00
56671;BME280;42545;50.054;8.306;2023-09-19T07:22:57;99742.50;;;14.20;100.00
56671;BME280;42545;50.054;8.306;2023-09-19T07:25:25;99758.38;;;14.27;100.00
56671;BME280;42545;50.054;8.306;2023-09-19T07:27:57;99759.28;;;14.26;100.00
56671;BME280;42545;50.054;8.306;2023-09-19T07:30:25;99764.56;;;14.27;100.00
56671;BME280;42545;50.054;8.306;2023-09-19T07:32:54;99762.81;;;14.29;100.00
56671;BME280;42545;50.054;8.306;2023-09-19T07:35:20;99773.41;;;14.32;100.00
56671;BME280;42545;50.054;8.306;2023-09-19T07:37:47;99776.94;;;14.36;100.00
56671;BME280;42545;50.054;8.306;2023-09-19T07:40:15;99771.63;;;14.36;100.00
56671;BME280;42545;50.054;8.306;2023-09-19T07:42:42;99776.06;;;14.37;100.00
56671;BME280;42545;50.054;8.306;2023-09-19T07:45:11;99772.50;;;14.38;100.00
56671;BME280;42545;50.054;8.306;2023-09-19T07:47:40;99784.91;;;14.40;100.00
56671;BME280;42545;50.054;8.306;2023-09-19T07:50:07;99784.91;;;14.40;100.00
56671;BME280;42545;50.054;8.306;2023-09-19T07:52:37;99778.69;;;14.43;100.00
56671;BME280;42545;50.054;8.306;2023-09-19T07:55:05;99784.88;;;14.43;100.00
56671;BME280;42545;50.054;8.306;2023-09-19T07:57:36;99781.34;;;14.46;100.00
56671;BME280;42545;50.054;8.306;2023-09-19T08:00:04;99783.94;;;14.51;100.00
56671;BME280;42545;50.054;8.306;2023-09-19T08:02:35;99783.06;;;14.52;100.00
56671;BME280;42545;50.054;8.306;2023-09-19T08:05:04;99784.81;;;14.54;100.00
56671;BME280;42545;50.054;8.306;2023-09-19T08:07:31;99797.22;;;14.55;100.00
56671;BME280;42545;50.054;8.306;2023-09-19T08:09:58;99805.19;;;14.61;100.00
56671;BME280;42545;50.054;8.306;2023-09-19T08:12:24;99803.44;;;14.59;100.00
56671;BME280;42545;50.054;8.306;2023-09-19T08:14:52;99805.22;;;14.58;100.00
56671;BME280;42545;50.054;8.306;2023-09-19T08:17:19;99818.47;;;14.63;100.00
56671;BME280;42545;50.054;8.306;2023-09-19T08:19:49;99814.06;;;14.62;100.00
56671;BME280;42545;50.054;8.306;2023-09-19T08:22:18;99807.84;;;14.66;100.00
56671;BME280;42545;50.054;8.306;2023-09-19T08:24:44;99807.81;;;14.69;100.00
56671;BME280;42545;50.054;8.306;2023-09-19T08:27:12;99814.84;;;14.76;100.00
56671;BME280;42545;50.054;8.306;2023-09-19T08:29:39;99804.22;;;14.79;100.00
56671;BME280;42545;50.054;8.306;2023-09-19T08:32:07;99813.94;;;14.87;100.00
56671;BME280;42545;50.054;8.306;2023-09-19T08:34:34;99816.53;;;14.96;100.00
56671;BME280;42545;50.054;8.306;2023-09-19T08:37:05;99821.81;;;15.02;100.00
56671;BME280;42545;50.054;8.306;2023-09-19T08:39:31;99826.25;;;15.02;100.00
56671;BME280;42545;50.054;8.306;2023-09-19T08:41:59;99820.06;;;15.04;100.00
56671;BME280;42545;50.054;8.306;2023-09-19T08:44:26;99834.22;;;15.06;100.00
56671;BME280;42545;50.054;8.306;2023-09-19T08:47:00;99826.22;;;15.08;100.00
56671;BME280;42545;50.054;8.306;2023-09-19T08:49:36;99820.88;;;15.11;100.00
56671;BME280;42545;50.054;8.306;2023-09-19T08:52:16;99827.94;;;15.15;100.00
56671;BME280;42545;50.054;8.306;2023-09-19T08:54:48;99824.34;;;15.22;100.00
56671;BME280;42545;50.054;8.306;2023-09-19T08:57:16;99825.22;;;15.27;100.00
56671;BME280;42545;50.054;8.306;2023-09-19T08:59:47;99825.19;;;15.32;99.94
56671;BME280;42545;50.054;8.306;2023-09-19T09:02:15;99834.03;;;15.35;97.72
56671;BME280;42545;50.054;8.306;2023-09-19T09:04:45;99830.47;;;15.38;97.96
56671;BME280;42545;50.054;8.306;2023-09-19T09:07:14;99829.56;;;15.39;95.55
56671;BME280;42545;50.054;8.306;2023-09-19T09:09:42;99837.56;;;15.36;93.25
56671;BME280;42545;50.054;8.306;2023-09-19T09:12:11;99840.19;;;15.41;93.22
56671;BME280;42545;50.054;8.306;2023-09-19T09:14:38;99849.91;;;15.43;92.28
56671;BME280;42545;50.054;8.306;2023-09-19T09:17:05;99844.59;;;15.42;92.15
56671;BME280;42545;50.054;8.306;2023-09-19T09:19:32;99833.97;;;15.43;90.14
56671;BME280;42545;50.054;8.306;2023-09-19T09:22:06;99832.19;;;15.47;90.35
56671;BME280;42545;50.054;8.306;2023-09-19T09:24:34;99830.38;;;15.49;87.51
56671;BME280;42545;50.054;8.306;2023-09-19T09:27:04;99825.03;;;15.53;88.90
56671;BME280;42545;50.054;8.306;2023-09-19T09:29:44;99828.50;;;15.63;nan
56671;BME280;42545;50.054;8.306;2023-09-19T09:32:23;99839.09;;;15.74;87.95
56671;BME280;42545;50.054;8.306;2023-09-19T09:34:52;99839.03;;;15.82;86.78
56671;BME280;42545;50.054;8.306;2023-09-19T09:37:19;99837.19;;;15.88;86.13
56671;BME280;42545;50.054;8.306;2023-09-19T09:39:53;99846.84;;;15.97;84.69
56671;BME280;42545;50.054;8.306;2023-09-19T09:42:32;99838.81;;;16.05;84.51
56671;BME280;42545;50.054;8.306;2023-09-19T09:45:17;99837.81;;;16.17;84.42
56671;BME280;42545;50.054;8.306;2023-09-19T09:47:53;99834.09;;;16.31;84.17
56671;BME280;42545;50.054;8.306;2023-09-19T09:50:27;99832.28;;;16.38;80.68
56671;BME280;42545;50.054;8.306;2023-09-19T09:53:07;99833.97;;;16.45;81.41
56671;BME280;42545;50.054;8.306;2023-09-19T09:56:01;99840.03;;;16.60;80.35
56671;BME280;42545;50.054;8.306;2023-09-19T09:58:30;99848.75;;;16.71;78.36
56671;BME280;42545;50.054;8.306;2023-09-19T10:00:58;99845.09;;;16.80;78.13
56671;BME280;42545;50.054;8.306;2023-09-19T10:03:32;99845.03;;;16.87;77.93
56671;BME280;42545;50.054;8.306;2023-09-19T10:06:04;99850.34;;;16.89;76.00
56671;BME280;42545;50.054;8.306;2023-09-19T10:08:57;99840.56;;;16.91;77.98
56671;BME280;42545;50.054;8.306;2023-09-19T10:11:29;99834.25;;;16.98;77.92
56671;BME280;42545;50.054;8.306;2023-09-19T10:13:56;99835.00;;;17.08;77.77
56671;BME280;42545;50.054;8.306;2023-09-19T10:16:23;99830.50;;;17.12;75.14
56671;BME280;42545;50.054;8.306;2023-09-19T10:18:53;99840.22;;;17.16;74.96
56671;BME280;42545;50.054;8.306;2023-09-19T10:21:23;99833.94;;;17.20;74.12
56671;BME280;42545;50.054;8.306;2023-09-19T10:23:51;99839.16;;;17.27;73.27
56671;BME280;42545;50.054;8.306;2023-09-19T10:26:21;99843.53;;;17.33;72.38
56671;BME280;42545;50.054;8.306;2023-09-19T10:28:51;99846.97;;;17.41;68.85
56671;BME280;42545;50.054;8.306;2023-09-19T10:31:20;99838.00;;;17.47;69.67
56671;BME280;42545;50.054;8.306;2023-09-19T10:33:49;99840.59;;;17.50;70.78
56671;BME280;42545;50.054;8.306;2023-09-19T10:36:16;99841.53;;;17.47;70.23
56671;BME280;42545;50.054;8.306;2023-09-19T10:38:45;99836.34;;;17.40;70.47
56671;BME280;42545;50.054;8.306;2023-09-19T10:41:16;99831.91;;;17.36;66.93
56671;BME280;42545;50.054;8.306;2023-09-19T10:43:43;99830.09;;;17.39;69.44
56671;BME280;42545;50.054;8.306;2023-09-19T10:46:13;99833.72;;;17.35;66.25
56671;BME280;42545;50.054;8.306;2023-09-19T10:48:41;99831.00;;;17.38;67.42
56671;BME280;42545;50.054;8.306;2023-09-19T10:51:11;99843.28;;;17.48;65.11
56671;BME280;42545;50.054;8.306;2023-09-19T10:53:46;99835.06;;;17.64;65.95
56671;BME280;42545;50.054;8.306;2023-09-19T10:56:18;99835.72;;;17.78;66.66
56671;BME280;42545;50.054;8.306;2023-09-19T10:58:47;99834.63;;;17.92;64.62
56671;BME280;42545;50.054;8.306;2023-09-19T11:01:16;99833.63;;;17.99;64.04
56671;BME280;42545;50.054;8.306;2023-09-19T11:03:42;99822.22;;;17.91;61.90
56671;BME280;42545;50.054;8.306;2023-09-19T11:06:12;99831.25;;;17.79;62.23
56671;BME280;42545;50.054;8.306;2023-09-19T11:08:56;99827.75;;;17.75;62.86
56671;BME280;42545;50.054;8.306;2023-09-19T11:11:39;99810.94;;;17.70;62.25
56671;BME280;42545;50.054;8.306;2023-09-19T11:14:28;99806.41;;;17.75;64.14
56671;BME280;42545;50.054;8.306;2023-09-19T11:17:31;99807.97;;;17.89;64.58
56671;BME280;42545;50.054;8.306;2023-09-19T11:20:19;99797.03;;;18.04;61.20
56671;BME280;42545;50.054;8.306;2023-09-19T11:23:23;99797.56;;;18.23;60.14
56671;BME280;42545;50.054;8.306;2023-09-19T11:25:52;99790.16;;;18.37;61.19
56671;BME280;42545;50.054;8.306;2023-09-19T11:28:33;99784.56;;;18.51;60.86
56671;BME280;42545;50.054;8.306;2023-09-19T11:34:38;99787.69;;;18.72;57.31
56671;BME280;42545;50.054;8.306;2023-09-19T11:40:06;99779.31;;;18.90;59.20
56671;BME280;42545;50.054;8.306;2023-09-19T11:42:41;99781.81;;;18.96;57.93
56671;BME280;42545;50.054;8.306;2023-09-19T11:48:26;99780.88;;;19.00;55.98
56671;BME280;42545;50.054;8.306;2023-09-19T11:50:56;99788.75;;;19.07;55.05
56671;BME280;42545;50.054;8.306;2023-09-19T11:53:30;99780.63;;;19.11;56.29
56671;BME280;42545;50.054;8.306;2023-09-19T11:55:58;99782.38;;;19.12;56.64
56671;BME280;42545;50.054;8.306;2023-09-19T11:58:26;99785.88;;;19.14;56.99
56671;BME280;42545;50.054;8.306;2023-09-19T12:00:55;99775.91;;;19.23;57.06
56671;BME280;42545;50.054;8.306;2023-09-19T12:03:29;99777.56;;;19.27;55.55
56671;BME280;42545;50.054;8.306;2023-09-19T12:05:57;99774.84;;;19.30;54.83
56671;BME280;42545;50.054;8.306;2023-09-19T12:08:24;99780.88;;;19.38;56.49
56671;BME280;42545;50.054;8.306;2023-09-19T12:10:53;99780.66;;;19.47;54.96
56671;BME280;42545;50.054;8.306;2023-09-19T12:13:20;99781.41;;;19.52;54.54
56671;BME280;42545;50.054;8.306;2023-09-19T12:15:47;99771.56;;;19.54;51.81
56671;BME280;42545;50.054;8.306;2023-09-19T12:18:26;99773.19;;;19.60;53.41
56671;BME280;42545;50.054;8.306;2023-09-19T12:20:53;99763.28;;;19.64;53.15
56671;BME280;42545;50.054;8.306;2023-09-19T12:23:22;99772.09;;;19.69;53.93
56671;BME280;42545;50.054;8.306;2023-09-19T12:25:48;99770.22;;;19.72;53.26
56671;BME280;42545;50.054;8.306;2023-09-19T12:28:19;99766.59;;;19.75;53.32
56671;BME280;42545;50.054;8.306;2023-09-19T12:30:47;99767.31;;;19.82;53.20
56671;BME280;42545;50.054;8.306;2023-09-19T12:33:16;99753.13;;;19.78;49.99
56671;BME280;42545;50.054;8.306;2023-09-19T12:35:44;99759.44;;;19.77;51.79
56671;BME280;42545;50.054;8.306;2023-09-19T12:38:24;99751.41;;;19.77;50.63
56671;BME280;42545;50.054;8.306;2023-09-19T12:40:52;99760.25;;;19.79;50.37
56671;BME280;42545;50.054;8.306;2023-09-19T12:43:19;99757.41;;;19.85;50.99
56671;BME280;42545;50.054;8.306;2023-09-19T12:45:46;99755.50;;;19.90;51.54
56671;BME280;42545;50.054;8.306;2023-09-19T12:48:21;99736.19;;;19.79;50.45
56671;BME280;42545;50.054;8.306;2023-09-19T12:51:04;99749.44;;;19.82;50.62
56671;BME280;42545;50.054;8.306;2023-09-19T12:53:35;99750.41;;;19.81;49.64
56671;BME280;42545;50.054;8.306;2023-09-19T12:56:06;99736.19;;;19.79;49.33
56671;BME280;42545;50.054;8.306;2023-09-19T12:58:34;99753.09;;;19.80;49.96
56671;BME280;42545;50.054;8.306;2023-09-19T13:01:14;99734.31;;;19.81;50.81
56671;BME280;42545;50.054;8.306;2023-09-19T13:03:41;99735.34;;;19.77;50.76
56671;BME280;42545;50.054;8.306;2023-09-19T13:06:08;99747.84;;;19.75;48.35
56671;BME280;42545;50.054;8.306;2023-09-19T13:08:37;99738.09;;;19.74;50.30
56671;BME280;42545;50.054;8.306;2023-09-19T13:11:06;99734.53;;;19.73;50.93
56671;BME280;42545;50.054;8.306;2023-09-19T13:13:35;99744.25;;;19.77;50.56
56671;BME280;42545;50.054;8.306;2023-09-19T13:16:03;99740.59;;;19.80;51.47